Nashville, Tennessee
Traffic Map
Current Weather Conditions
Nashville, Tennessee
Overcast
Overcast
73°
Feels Like: 73°
Wind Chill: 73° Ceiling: 1400
Heat Index: 73° Visibility: 9mi
Dew Point: 68° Wind: 9mph
Humidity: 84% Direction: 350° (N)
Pressure: 30.02in Gusts: 0mph
Raw Report DataKBNA 241253Z 35008KT 9SM BKN014 OVC023 23/20 A3002 RMK AO2 PK WND 30028/1224 SLP158 T02280200
Traffic Incident Summary
Active as of:
Severity:
Category:
InformationThere was an issue retrieving the traffic information for this location. Please try a different location or try again shortly.
Advertisements
Track Severe Weather on mobile